Time;durP1;ratioP1;P1;durP2;ratioP2;P2;SDS_P1;SDS_P2;PMS_P1;PMS_P2;Temp;Humidity;BMP_temperature;BMP_pressure;BME280_temperature;BME280_humidity;BME280_pressure;Samples;Min_cycle;Max_cycle;Signal;HPM_P1;HPM_P2
2022/05/15 00:02:12;;;;;;;9.63;4.90;;;;;;;11.34;61.30;100369.90;1638208;87;27360;-69
2022/05/15 00:04:39;;;;;;;12.55;5.97;;;;;;;11.33;61.27;100371.81;1638284;87;25608;-69
2022/05/15 00:07:07;;;;;;;9.15;4.53;;;;;;;11.31;61.49;100382.17;1638184;87;25722;-69
2022/05/15 00:09:34;;;;;;;16.00;5.40;;;;;;;11.29;61.63;100377.62;1638244;87;25679;-69
2022/05/15 00:12:03;;;;;;;10.82;4.78;;;;;;;11.28;61.66;100375.22;1638325;87;25677;-69
2022/05/15 00:14:30;;;;;;;12.63;5.37;;;;;;;11.28;61.77;100381.43;1638515;87;27425;-69
2022/05/15 00:16:57;;;;;;;10.72;4.85;;;;;;;11.27;61.89;100371.73;1638087;87;25431;-71
2022/05/15 00:19:23;;;;;;;12.20;4.80;;;;;;;11.25;61.69;100375.84;1636194;87;25773;-70
2022/05/15 00:21:50;;;;;;;13.55;4.85;;;;;;;11.23;61.87;100378.86;1637925;87;26901;-70
2022/05/15 00:24:17;;;;;;;10.45;4.95;;;;;;;11.21;61.91;100379.17;1638197;87;25676;-70
2022/05/15 00:26:43;;;;;;;12.18;4.75;;;;;;;11.19;61.99;100385.45;1635700;87;27364;-70
2022/05/15 00:29:09;;;;;;;12.78;4.65;;;;;;;11.17;61.92;100376.06;1638545;87;25734;-70
2022/05/15 00:31:36;;;;;;;13.10;5.28;;;;;;;11.15;62.14;100381.78;1638707;87;25676;-69
2022/05/15 00:34:03;;;;;;;15.70;4.55;;;;;;;11.14;62.21;100386.15;1638424;87;25622;-70
2022/05/15 00:36:30;;;;;;;10.28;4.70;;;;;;;11.13;62.14;100383.19;1638625;87;25456;-70
2022/05/15 00:38:58;;;;;;;10.98;4.45;;;;;;;11.11;62.31;100385.41;1638621;87;26857;-71
2022/05/15 00:41:26;;;;;;;10.60;4.50;;;;;;;11.08;62.36;100386.81;1638460;87;25650;-70
2022/05/15 00:43:57;;;;;;;20.50;5.62;;;;;;;11.06;62.24;100387.68;1638644;87;25428;-70
2022/05/15 00:46:29;;;;;;;11.15;4.83;;;;;;;11.04;62.35;100388.55;1638875;87;26378;-69
2022/05/15 00:49:00;;;;;;;13.03;4.65;;;;;;;11.01;62.36;100387.81;1638676;87;25665;-68
2022/05/15 00:51:56;;;;;;;11.73;4.92;;;;;;;10.99;62.40;100389.47;1638783;87;27456;-70
2022/05/15 00:54:28;;;;;;;13.80;4.87;;;;;;;10.97;62.53;100386.28;1638800;87;25654;-70
2022/05/15 00:56:59;;;;;;;12.47;4.65;;;;;;;10.93;62.69;100391.26;1638625;87;25603;-68
2022/05/15 00:59:31;;;;;;;13.03;4.72;;;;;;;10.90;62.65;100391.34;1618475;88;26562;-69
2022/05/15 01:01:58;;;;;;;14.50;4.87;;;;;;;10.87;62.72;100392.52;1629750;87;25427;-69
2022/05/15 01:04:24;;;;;;;10.32;4.33;;;;;;;10.84;62.55;100387.14;1629659;88;27334;-68
2022/05/15 01:06:51;;;;;;;10.72;4.60;;;;;;;10.82;62.67;100384.75;1629508;88;25675;-69
2022/05/15 01:09:19;;;;;;;17.55;4.70;;;;;;;10.80;62.56;100378.06;1629631;88;25651;-69
2022/05/15 01:11:48;;;;;;;11.30;4.50;;;;;;;10.76;62.62;100381.11;1629604;87;25626;-69
2022/05/15 01:14:18;;;;;;;10.72;4.83;;;;;;;10.74;62.64;100384.69;1629717;88;25802;-69
2022/05/15 01:16:46;;;;;;;11.53;4.28;;;;;;;10.68;62.79;100381.31;1629618;88;27036;-69
2022/05/15 01:19:14;;;;;;;10.43;4.50;;;;;;;10.63;62.92;100380.09;1609323;88;25581;-70
2022/05/15 01:21:55;;;;;;;7.92;4.00;;;;;;;10.60;63.06;100376.63;1629613;87;25432;-69
2022/05/15 01:24:22;;;;;;;10.20;4.40;;;;;;;10.56;63.14;100384.56;1629590;87;25669;-69
2022/05/15 01:26:48;;;;;;;7.78;4.03;;;;;;;10.51;63.23;100383.89;1629761;87;25507;-69
2022/05/15 01:29:14;;;;;;;12.78;4.53;;;;;;;10.49;63.26;100386.08;1631302;88;27361;-69
2022/05/15 01:31:41;;;;;;;8.58;3.30;;;;;;;10.44;63.43;100385.67;1645661;87;25643;-69
2022/05/15 01:34:10;;;;;;;17.02;4.92;;;;;;;10.42;63.42;100386.50;1645805;87;25465;-69
2022/05/15 01:36:37;;;;;;;11.57;4.13;;;;;;;10.38;63.57;100381.47;1618106;88;25715;-69
2022/05/15 01:39:06;;;;;;;10.48;4.25;;;;;;;10.35;63.57;100391.00;1645748;86;25417;-69
2022/05/15 01:41:33;;;;;;;10.70;4.55;;;;;;;10.33;63.79;100385.64;1646271;87;27316;-68
2022/05/15 01:44:00;;;;;;;11.40;4.20;;;;;;;10.29;63.74;100382.16;1645611;86;25671;-69
2022/05/15 01:46:31;;;;;;;13.30;4.03;;;;;;;10.28;63.83;100381.92;1645775;87;25696;-71
2022/05/15 01:48:59;;;;;;;7.87;3.40;;;;;;;10.25;63.73;100392.55;1646257;87;25811;-70
2022/05/15 01:51:26;;;;;;;7.83;3.35;;;;;;;10.21;63.81;100392.33;1645722;86;25663;-69
2022/05/15 01:53:53;;;;;;;11.03;5.10;;;;;;;10.19;63.84;100397.25;1617861;88;27363;-70
2022/05/15 01:56:20;;;;;;;8.25;3.22;;;;;;;10.16;63.85;100389.74;1645615;87;25433;-70
2022/05/15 01:58:46;;;;;;;12.20;3.90;;;;;;;10.15;63.91;100404.91;1645636;87;25414;-69
2022/05/15 02:01:13;;;;;;;13.05;4.37;;;;;;;10.13;63.89;100397.13;1636968;87;26490;-69
2022/05/15 02:03:39;;;;;;;8.83;3.20;;;;;;;10.10;64.07;100393.12;1637114;87;25635;-69
2022/05/15 02:06:06;;;;;;;8.73;4.10;;;;;;;10.09;64.00;100400.17;1637013;87;27919;-68
2022/05/15 02:08:37;;;;;;;13.22;4.37;;;;;;;10.07;64.09;100402.38;1636931;87;25409;-68
2022/05/15 02:11:04;;;;;;;7.50;3.25;;;;;;;10.05;64.12;100400.55;1636989;87;25412;-69
2022/05/15 02:13:31;;;;;;;8.73;3.42;;;;;;;10.02;64.07;100405.98;1636975;87;26362;-70
2022/05/15 02:15:58;;;;;;;8.08;3.30;;;;;;;9.98;64.16;100406.35;1637049;87;25745;-69
2022/05/15 02:18:25;;;;;;;31.82;4.30;;;;;;;9.95;64.67;100408.86;1637010;87;27337;-69
2022/05/15 02:20:52;;;;;;;8.60;4.08;;;;;;;9.92;64.55;100411.60;1636899;87;25701;-69
2022/05/15 02:23:18;;;;;;;10.45;3.67;;;;;;;9.89;64.55;100408.14;1637002;87;25568;-69
2022/05/15 02:25:45;;;;;;;8.95;3.25;;;;;;;9.87;64.49;100409.00;1637020;87;25654;-69
2022/05/15 02:28:11;;;;;;;8.40;3.30;;;;;;;9.83;64.65;100402.61;1636022;86;25397;-69
2022/05/15 02:30:38;;;;;;;10.25;4.15;;;;;;;9.80;64.59;100403.20;1635368;87;27334;-69
2022/05/15 02:33:06;;;;;;;14.07;3.92;;;;;;;9.77;64.90;100407.30;1635269;87;25652;-69
2022/05/15 02:35:33;;;;;;;5.85;3.00;;;;;;;9.74;64.95;100410.63;1635352;87;25634;-69
2022/05/15 02:37:59;;;;;;;12.07;3.60;;;;;;;9.72;65.28;100404.16;1635342;87;25714;-69
2022/05/15 02:40:28;;;;;;;8.53;3.58;;;;;;;9.70;65.32;100409.07;1635392;87;25643;-69
2022/05/15 02:42:56;;;;;;;10.80;3.85;;;;;;;9.67;65.28;100408.31;1635366;87;27444;-69
2022/05/15 02:45:24;;;;;;;13.03;3.33;;;;;;;9.66;65.38;100408.61;1635244;87;25576;-69
2022/05/15 02:47:50;;;;;;;8.78;3.92;;;;;;;9.64;65.37;100410.27;1635396;87;25586;-69
2022/05/15 02:53:03;;;;;;;9.43;3.17;;;;;;;9.61;65.55;100413.55;1635416;87;25574;-68
2022/05/15 02:55:29;;;;;;;7.62;2.98;;;;;;;9.60;65.65;100411.15;1635402;87;28077;-69
2022/05/15 02:57:56;;;;;;;7.90;3.08;;;;;;;9.57;65.77;100419.31;1635396;87;25691;-68
2022/05/15 03:00:26;;;;;;;7.97;3.58;;;;;;;9.55;65.63;100416.09;1635425;87;25407;-68
2022/05/15 03:02:53;;;;;;;8.98;3.50;;;;;;;9.54;65.76;100410.45;1635619;87;25860;-73
2022/05/15 03:05:21;;;;;;;10.23;3.42;;;;;;;9.51;65.99;100419.15;1635583;87;25659;-69
2022/05/15 03:07:49;;;;;;;12.10;3.80;;;;;;;9.51;66.06;100423.98;1635601;87;27324;-69
2022/05/15 03:10:19;;;;;;;9.83;3.33;;;;;;;9.50;66.10;100417.53;1635429;87;25469;-69
2022/05/15 03:12:45;;;;;;;;;;;;;;;9.48;66.09;100419.73;1637908;87;25458;-68
2022/05/15 03:15:14;;;;;;;13.80;3.42;;;;;;;9.46;66.40;100421.38;1635485;87;25829;-68
2022/05/15 03:17:43;;;;;;;9.20;3.27;;;;;;;9.44;66.43;100424.14;1635650;87;25426;-71
2022/05/15 03:20:12;;;;;;;9.88;3.47;;;;;;;9.43;66.58;100423.35;1635570;87;27547;-71
2022/05/15 03:22:39;;;;;;;11.75;3.02;;;;;;;9.42;66.72;100423.09;1635529;87;25685;-69
2022/05/15 03:25:08;;;;;;;7.50;3.60;;;;;;;9.41;66.74;100425.52;1635506;87;25576;-69
2022/05/15 03:27:34;;;;;;;8.90;3.47;;;;;;;9.41;66.73;100424.17;1635681;87;25858;-69
2022/05/15 03:30:01;;;;;;;13.22;3.77;;;;;;;9.41;66.74;100428.23;1637145;87;25412;-69
2022/05/15 03:32:28;;;;;;;12.13;3.40;;;;;;;9.41;66.89;100426.08;1646564;86;29578;-69
2022/05/15 03:34:54;;;;;;;7.75;3.00;;;;;;;9.42;66.96;100431.19;1650135;86;25793;-70
2022/05/15 03:37:21;;;;;;;10.43;3.10;;;;;;;9.43;67.21;100427.93;1638445;87;25638;-70
2022/05/15 03:39:47;;;;;;;9.50;3.58;;;;;;;9.44;67.17;100427.64;1638420;87;25641;-70
2022/05/15 03:42:13;;;;;;;11.90;3.62;;;;;;;9.45;67.29;100436.53;1638555;87;25695;-70
2022/05/15 03:44:39;;;;;;;10.90;3.45;;;;;;;9.48;67.42;100437.29;1638465;87;27397;-69
2022/05/15 03:47:10;;;;;;;9.00;3.72;;;;;;;9.49;67.42;100433.50;1638431;87;25625;-71
2022/05/15 03:49:37;;;;;;;11.08;3.20;;;;;;;9.52;67.48;100441.80;1634936;87;25445;-70
2022/05/15 03:52:06;;;;;;;8.00;2.80;;;;;;;9.56;67.60;100445.27;1638548;87;25665;-69
2022/05/15 03:54:32;;;;;;;6.65;2.67;;;;;;;9.58;67.61;100446.55;1638595;87;25457;-68
2022/05/15 03:56:58;;;;;;;11.88;3.67;;;;;;;9.62;67.56;100444.88;1638488;87;28127;-69
2022/05/15 03:59:30;;;;;;;11.08;3.00;;;;;;;9.66;67.67;100452.62;1638442;87;25705;-69
2022/05/15 04:01:57;;;;;;;10.45;3.55;;;;;;;9.69;67.75;100453.38;1638501;87;25667;-69
2022/05/15 04:04:23;;;;;;;14.35;3.60;;;;;;;9.73;67.81;100450.87;1638505;87;26632;-69
2022/05/15 04:06:49;;;;;;;7.05;2.70;;;;;;;9.78;67.75;100452.69;1638483;87;25596;-69
2022/05/15 04:09:16;;;;;;;7.37;3.00;;;;;;;9.81;67.76;100462.91;1638486;87;27397;-69
2022/05/15 04:11:43;;;;;;;11.20;2.90;;;;;;;9.85;67.74;100461.98;1638382;87;25499;-69
2022/05/15 04:14:10;;;;;;;11.63;4.33;;;;;;;9.88;67.72;100460.04;1638493;87;25465;-69
2022/05/15 04:16:43;;;;;;;9.35;3.40;;;;;;;9.95;67.73;100462.91;1638417;87;25686;-69
2022/05/15 04:19:28;;;;;;;12.37;3.00;;;;;;;10.00;67.64;100470.34;1635237;87;25544;-69
2022/05/15 04:21:58;;;;;;;10.75;3.62;;;;;;;10.06;67.59;100468.34;1638447;87;26842;-71
2022/05/15 04:24:23;;;;;;;10.90;2.87;;;;;;;10.12;67.55;100470.41;1638093;87;25493;-69
2022/05/15 04:26:49;;;;;;;7.40;2.83;;;;;;;10.18;67.33;100473.23;1638498;87;25664;-69
2022/05/15 04:29:17;;;;;;;6.90;2.75;;;;;;;10.25;67.32;100470.95;1640532;87;25862;-69
2022/05/15 04:31:43;;;;;;;5.35;2.72;;;;;;;10.29;67.11;100470.58;1641318;87;25607;-69
2022/05/15 04:34:09;;;;;;;10.78;2.92;;;;;;;10.36;67.22;100472.35;1641239;87;27317;-69
2022/05/15 04:36:36;;;;;;;12.03;3.12;;;;;;;10.42;66.87;100472.50;1641290;87;25638;-71
2022/05/15 04:39:04;;;;;;;8.18;2.27;;;;;;;10.49;66.69;100468.56;1641239;87;25522;-69
2022/05/15 04:41:31;;;;;;;8.30;2.30;;;;;;;10.54;66.50;100471.16;1641427;87;25623;-69
2022/05/15 04:43:58;;;;;;;10.53;2.47;;;;;;;10.60;66.20;100472.66;1641250;87;25493;-69
2022/05/15 04:46:27;;;;;;;9.40;2.33;;;;;;;10.66;66.08;100472.80;1641365;87;27567;-69
2022/05/15 04:48:53;;;;;;;7.70;2.30;;;;;;;10.74;66.04;100471.27;1641387;87;25976;-70
2022/05/15 04:51:20;;;;;;;7.53;3.50;;;;;;;10.82;66.03;100480.02;1641306;87;25608;-69
2022/05/15 04:53:46;;;;;;;14.80;3.12;;;;;;;10.89;65.76;100477.67;1641304;87;25658;-69
2022/05/15 04:56:12;;;;;;;10.28;2.87;;;;;;;10.98;65.67;100479.91;1641278;87;25512;-69
2022/05/15 04:58:39;;;;;;;9.68;2.62;;;;;;;11.03;65.18;100479.79;1641282;87;27328;-70
2022/05/15 05:01:05;;;;;;;13.98;2.83;;;;;;;11.10;65.14;100484.78;1641149;87;25482;-70
2022/05/15 05:03:31;;;;;;;6.17;2.65;;;;;;;11.17;65.01;100485.70;1641433;87;25495;-69
2022/05/15 05:05:59;;;;;;;10.68;2.40;;;;;;;11.24;64.88;100487.95;1641367;87;25656;-70
2022/05/15 05:08:27;;;;;;;8.50;2.65;;;;;;;11.31;64.61;100492.40;1641359;87;25653;-70
2022/05/15 05:10:56;;;;;;;10.10;2.58;;;;;;;11.36;64.49;100490.92;1641271;87;27381;-68
2022/05/15 05:13:22;;;;;;;6.33;2.20;;;;;;;11.43;64.24;100494.55;1641168;87;25512;-69
2022/05/15 05:15:48;;;;;;;9.85;2.33;;;;;;;11.50;64.03;100490.27;1641199;87;25615;-70
2022/05/15 05:18:17;;;;;;;11.83;4.80;;;;;;;11.56;63.67;100495.82;1641309;87;25655;-69
2022/05/15 05:20:46;;;;;;;17.37;8.03;;;;;;;11.64;63.23;100490.19;1641469;87;25580;-69
2022/05/15 05:23:14;;;;;;;15.93;7.25;;;;;;;11.73;63.15;100494.29;1641361;87;27330;-69
2022/05/15 05:25:41;;;;;;;9.50;3.20;;;;;;;11.84;63.05;100499.69;1641202;87;25738;-68
2022/05/15 05:28:08;;;;;;;10.68;2.65;;;;;;;11.96;62.74;100500.49;1640663;87;25483;-69
2022/05/15 05:30:37;;;;;;;7.45;2.52;;;;;;;12.10;62.36;100507.16;1638414;87;25698;-70
2022/05/15 05:33:06;;;;;;;6.80;2.43;;;;;;;12.23;62.12;100506.81;1638698;87;25637;-69
2022/05/15 05:35:35;;;;;;;7.53;2.35;;;;;;;12.38;61.55;100516.41;1638337;87;27427;-70
2022/05/15 05:38:02;;;;;;;7.23;2.03;;;;;;;12.49;60.72;100514.44;1638568;87;25528;-70
2022/05/15 05:40:28;;;;;;;6.45;1.77;;;;;;;12.58;60.10;100516.38;1638388;87;25502;-69
2022/05/15 05:42:54;;;;;;;11.38;2.05;;;;;;;12.64;59.81;100514.55;1638412;87;25861;-69
2022/05/15 05:45:23;;;;;;;16.67;5.03;;;;;;;12.73;59.47;100512.41;1638426;87;25617;-69
2022/05/15 05:47:55;;;;;;;10.00;4.05;;;;;;;12.84;59.29;100519.92;1638571;87;27364;-70
2022/05/15 05:50:24;;;;;;;6.30;2.35;;;;;;;12.94;58.67;100510.67;1638344;87;25685;-69
2022/05/15 05:52:51;;;;;;;8.23;3.60;;;;;;;13.03;58.66;100512.82;1638562;87;25590;-69
2022/05/15 05:55:20;;;;;;;6.40;2.08;;;;;;;13.18;58.53;100510.19;1638336;87;25772;-69
2022/05/15 05:57:46;;;;;;;11.05;2.10;;;;;;;13.32;58.03;100511.39;1638573;87;25509;-69
2022/05/15 06:00:19;;;;;;;12.07;2.17;;;;;;;13.47;58.11;100503.84;1638440;87;27529;-70
2022/05/15 06:02:45;;;;;;;5.78;1.52;;;;;;;13.63;57.65;100499.50;1638091;87;26028;-69
2022/05/15 06:05:11;;;;;;;6.08;1.72;;;;;;;13.77;56.69;100505.55;1638419;87;25631;-69
2022/05/15 06:07:39;;;;;;;3.85;1.65;;;;;;;13.90;56.27;100497.49;1638493;87;25642;-69
2022/05/15 06:10:09;;;;;;;9.75;1.70;;;;;;;14.01;55.38;100500.88;1638427;87;25420;-70
2022/05/15 06:12:36;;;;;;;6.30;1.98;;;;;;;14.08;54.14;100505.81;1638434;87;27588;-69
2022/05/15 06:15:03;;;;;;;4.50;1.32;;;;;;;14.12;54.29;100506.75;1638395;87;25587;-69
2022/05/15 06:17:33;;;;;;;4.87;1.37;;;;;;;14.20;54.59;100505.91;1638451;87;25653;-70
2022/05/15 06:20:04;;;;;;;6.80;1.98;;;;;;;14.38;54.28;100512.03;1638408;87;25639;-68
2022/05/15 06:22:31;;;;;;;5.05;1.22;;;;;;;14.54;53.97;100512.28;1638539;87;25591;-68
2022/05/15 06:24:57;;;;;;;8.03;1.75;;;;;;;14.71;53.57;100516.02;1638478;87;27347;-69
2022/05/15 06:27:23;;;;;;;5.67;2.42;;;;;;;14.89;53.09;100511.25;1631799;88;25500;-69
2022/05/15 06:29:51;;;;;;;4.10;1.20;;;;;;;15.05;51.79;100519.06;1632391;87;25713;-68
2022/05/15 06:32:17;;;;;;;5.92;1.25;;;;;;;15.17;51.43;100527.04;1646783;87;25666;-69
2022/05/15 06:34:43;;;;;;;9.20;2.25;;;;;;;15.25;50.80;100524.81;1646878;87;25590;-69
2022/05/15 06:37:11;;;;;;;4.90;1.52;;;;;;;15.37;50.93;100522.13;1646835;87;27432;-69
2022/05/15 06:39:38;;;;;;;8.78;2.12;;;;;;;15.55;51.14;100521.39;1648423;86;25862;-69
2022/05/15 06:42:07;;;;;;;8.60;1.82;;;;;;;15.78;50.83;100523.19;1619344;88;25468;-69
2022/05/15 06:44:36;;;;;;;3.95;1.47;;;;;;;16.05;50.97;100524.44;1619595;88;25625;-68
2022/05/15 06:47:05;;;;;;;;;;;;;;;16.35;50.15;100539.24;1621827;88;25614;-70
2022/05/15 06:49:34;;;;;;;6.28;1.37;;;;;;;16.60;49.30;100531.02;1619414;88;27933;-69
2022/05/15 06:52:00;;;;;;;7.37;1.55;;;;;;;16.81;48.63;100534.39;1619424;88;25749;-69
2022/05/15 06:54:28;;;;;;;4.55;1.52;;;;;;;16.97;48.11;100532.33;1619401;88;25676;-70
2022/05/15 06:59:39;;;;;;;5.53;2.02;;;;;;;16.79;46.13;100539.41;1619434;88;25592;-70
2022/05/15 07:02:07;;;;;;;12.37;2.22;;;;;;;16.74;46.56;100537.50;1619337;88;27427;-70
2022/05/15 07:04:33;;;;;;;6.60;2.40;;;;;;;16.84;46.99;100533.47;1619301;88;25426;-71
2022/05/15 07:07:00;;;;;;;5.80;2.25;;;;;;;16.96;47.04;100543.05;1619359;88;25503;-70
2022/05/15 07:09:27;;;;;;;10.53;1.80;;;;;;;16.99;46.50;100538.23;1619335;88;25625;-70
2022/05/15 07:11:54;;;;;;;7.10;2.00;;;;;;;16.79;45.79;100540.78;1619368;88;25477;-70
2022/05/15 07:14:20;;;;;;;11.15;4.83;;;;;;;16.79;46.41;100542.14;1619345;88;27547;-70
2022/05/15 07:16:46;;;;;;;7.35;3.17;;;;;;;16.99;45.97;100542.34;1619195;88;25602;-71
2022/05/15 07:19:12;;;;;;;10.38;3.80;;;;;;;16.93;46.15;100539.64;1619338;88;25687;-70
2022/05/15 07:21:38;;;;;;;5.15;1.52;;;;;;;16.85;46.24;100544.09;1619182;88;25568;-70
2022/05/15 07:24:05;;;;;;;7.70;2.00;;;;;;;16.87;45.32;100549.20;1619330;88;25431;-69
2022/05/15 07:26:34;;;;;;;8.23;2.15;;;;;;;16.79;46.07;100546.82;1618767;87;27929;-71
2022/05/15 07:29:00;;;;;;;7.40;2.35;;;;;;;16.66;46.06;100550.13;1638850;87;26637;-70
2022/05/15 07:31:26;;;;;;;7.97;1.70;;;;;;;16.74;46.06;100549.21;1640709;87;25669;-69
2022/05/15 07:33:52;;;;;;;6.83;2.17;;;;;;;16.80;46.04;100552.48;1641202;87;25624;-69
2022/05/15 07:36:18;;;;;;;5.15;1.32;;;;;;;16.88;46.80;100555.70;1641201;87;25662;-69
2022/05/15 07:38:45;;;;;;;8.55;1.70;;;;;;;16.96;46.54;100553.98;1641245;87;28103;-70
2022/05/15 07:41:13;;;;;;;6.80;1.50;;;;;;;17.01;46.07;100554.30;1640967;87;25800;-70
2022/05/15 07:43:40;;;;;;;10.45;3.90;;;;;;;17.24;45.82;100552.63;1641095;86;25732;-70
2022/05/15 07:46:06;;;;;;;8.30;1.98;;;;;;;17.34;45.63;100566.37;1641231;87;25628;-70
2022/05/15 07:48:33;;;;;;;4.62;1.60;;;;;;;17.50;45.60;100563.13;1641440;87;25465;-71
2022/05/15 07:50:59;;;;;;;8.38;1.57;;;;;;;17.78;45.72;100566.39;1639655;87;27361;-71
2022/05/15 07:53:27;;;;;;;5.25;1.77;;;;;;;18.13;45.79;100562.98;1640538;87;25723;-70
2022/05/15 07:55:55;;;;;;;5.75;1.67;;;;;;;18.41;44.45;100551.92;1628785;86;25529;-70
2022/05/15 07:58:23;;;;;;;8.63;1.70;;;;;;;18.43;43.94;100562.53;1644337;86;25825;-70
2022/05/15 08:00:52;;;;;;;5.85;1.70;;;;;;;18.48;43.59;100570.47;1617359;88;25678;-70
2022/05/15 08:03:18;;;;;;;6.65;1.72;;;;;;;18.64;43.96;100564.95;1632593;87;27125;-69
2022/05/15 08:08:20;;;;;;;11.25;2.00;;;;;;;18.82;43.03;100572.20;1594334;89;25470;-69
2022/05/15 08:10:47;;;;;;;4.78;1.37;;;;;;;19.14;42.85;100563.33;1587005;89;25779;-71
2022/05/15 08:13:21;;;;;;;6.60;1.90;;;;;;;19.37;42.20;100554.36;1594592;89;25813;-73
2022/05/15 08:15:48;;;;;;;3.25;1.22;;;;;;;19.31;42.08;100564.05;1595442;89;27363;-79
2022/05/15 08:24:00;;;;;;;7.47;1.85;;;;;;;18.55;41.21;100570.62;1601055;89;25721;-78
2022/05/15 08:26:29;;;;;;;6.25;2.33;;;;;;;18.42;41.78;100578.17;1594616;89;25792;-81
2022/05/15 08:28:57;;;;;;;4.55;2.10;;;;;;;18.37;41.88;100570.78;1605272;88;27288;-81
2022/05/15 08:31:26;;;;;;;7.33;1.75;;;;;;;18.33;41.94;100571.28;1576033;91;25500;-83
2022/05/15 08:33:58;;;;;;;7.55;1.52;;;;;;;18.25;42.04;100575.23;1575731;91;25386;-83
2022/05/15 08:36:24;;;;;;;4.50;1.50;;;;;;;18.52;43.25;100574.66;1573253;89;26185;-71
2022/05/15 08:38:52;;;;;;;4.00;1.85;;;;;;;18.87;41.52;100574.70;1601746;89;25695;-81
2022/05/15 08:41:34;;;;;;;4.78;1.25;;;;;;;18.72;41.15;100583.73;1591447;89;26983;-81
2022/05/15 08:44:15;;;;;;;4.72;1.25;;;;;;;18.84;41.90;100573.45;1575644;91;25591;-80
2022/05/15 08:47:09;;;;;;;6.50;1.60;;;;;;;19.31;42.13;100576.40;1630381;87;25354;-79
2022/05/15 08:50:02;;;;;;;3.80;1.60;;;;;;;19.47;40.49;100583.95;1531082;93;25391;-82
2022/05/15 08:52:56;;;;;;;6.72;1.70;;;;;;;19.42;40.45;100588.36;1534206;93;25438;-71
2022/05/15 08:55:41;;;;;;;5.58;1.50;;;;;;;19.81;41.12;100584.80;1531513;93;27900;-74
2022/05/15 08:58:31;;;;;;;6.22;1.80;;;;;;;20.43;40.61;100570.91;1510304;93;25918;-72
2022/05/15 09:00:57;;;;;;;7.22;1.87;;;;;;;20.69;39.98;100583.90;1506130;94;25851;-73
2022/05/15 09:03:31;;;;;;;7.78;1.47;;;;;;;20.88;38.39;100576.11;1507117;94;25870;-72
2022/05/15 09:06:39;;;;;;;4.83;1.30;;;;;;;20.69;38.31;100582.53;1507890;94;26371;-75
2022/05/15 09:09:28;;;;;;;3.42;1.20;;;;;;;20.43;37.38;100592.33;1524647;94;27391;-72
2022/05/15 09:11:56;;;;;;;;;;;;;;;20.22;37.76;100580.40;1522187;94;25917;-71
2022/05/15 09:14:48;;;;;;;3.12;1.45;;;;;;;20.16;38.21;100596.98;1507656;94;25525;-71
2022/05/15 09:17:27;;;;;;;4.05;1.20;;;;;;;20.47;38.74;100602.77;1517530;93;25835;-77
2022/05/15 09:19:58;;;;;;;3.80;1.20;;;;;;;20.81;38.22;100598.02;1440171;98;26054;-73
2022/05/15 09:22:30;;;;;;;9.33;1.95;;;;;;;20.97;36.92;100599.20;1464097;97;27360;-74
2022/05/15 09:24:56;;;;;;;2.95;1.20;;;;;;;20.70;37.00;100590.97;1460548;98;25771;-73
2022/05/15 09:27:26;;;;;;;4.72;1.40;;;;;;;20.56;37.03;100602.52;1503865;94;25510;-74
2022/05/15 09:29:59;;;;;;;6.28;2.62;;;;;;;20.73;37.30;100595.73;1496848;95;25888;-74
2022/05/15 09:32:42;;;;;;;4.53;2.02;;;;;;;21.11;37.49;100605.47;1533789;92;25875;-76
2022/05/15 09:35:35;;;;;;;3.83;1.32;;;;;;;21.16;36.28;100607.89;1534406;92;27360;-76
2022/05/15 09:43:44;;;;;;;4.30;1.42;;;;;;;21.49;36.33;100604.96;1544387;92;25850;-74
2022/05/15 09:46:18;;;;;;;9.43;1.42;;;;;;;21.50;35.70;100603.80;1557972;92;25643;-71
2022/05/15 09:49:01;;;;;;;3.50;1.37;;;;;;;21.33;35.09;100610.66;1559559;90;27564;-71
2022/05/15 09:51:47;;;;;;;59.95;3.35;;;;;;;20.88;34.65;100617.34;1557947;92;25855;-70
2022/05/15 09:54:38;;;;;;;8.55;1.52;;;;;;;20.66;35.64;100617.02;1527322;93;25640;-69
2022/05/15 09:57:19;;;;;;;5.28;1.42;;;;;;;20.75;35.89;100607.14;1572875;85;26887;-70
2022/05/15 09:59:59;;;;;;;4.25;1.30;;;;;;;21.15;36.81;100609.86;1622288;87;25654;-70
2022/05/15 10:02:46;;;;;;;6.20;1.35;;;;;;;21.52;35.39;100611.91;1580325;88;27652;-71
2022/05/15 10:05:24;;;;;;;4.20;1.45;;;;;;;21.41;34.89;100615.08;1591465;90;25859;-70
2022/05/15 10:08:11;;;;;;;5.05;1.72;;;;;;;21.17;34.83;100625.39;1568321;90;25658;-71
2022/05/15 10:10:44;;;;;;;4.17;1.30;;;;;;;21.06;35.59;100614.27;1573851;90;25803;-71
2022/05/15 10:13:22;;;;;;;5.35;1.20;;;;;;;21.13;34.94;100614.13;1552957;91;25779;-69
2022/05/15 10:15:50;;;;;;;4.65;1.50;;;;;;;21.60;35.19;100617.67;1582860;89;27556;-72
2022/05/15 10:18:24;;;;;;;6.00;1.32;;;;;;;22.25;35.26;100614.17;1573091;91;25694;-70
2022/05/15 10:20:53;;;;;;;3.45;1.30;;;;;;;22.65;34.26;100614.52;1577261;89;25383;-69
2022/05/15 10:23:24;;;;;;;6.37;1.85;;;;;;;22.61;33.04;100620.02;1577471;90;25791;-69
2022/05/15 10:26:04;;;;;;;5.00;1.35;;;;;;;22.53;33.48;100619.16;1584303;89;25836;-69
2022/05/15 10:28:45;;;;;;;9.55;1.87;;;;;;;22.73;32.63;100624.39;1572932;89;27187;-68
2022/05/15 10:31:31;;;;;;;6.50;1.40;;;;;;;22.48;32.65;100631.91;1592909;89;25750;-69
2022/05/15 10:34:08;;;;;;;10.20;1.92;;;;;;;22.61;33.04;100622.77;1600496;87;25619;-69
2022/05/15 10:37:18;;;;;;;6.95;2.10;;;;;;;22.78;33.43;100628.77;1611024;88;25678;-70
2022/05/15 10:40:16;;;;;;;8.60;1.82;;;;;;;23.25;33.42;100612.69;1603314;88;25724;-69
2022/05/15 10:43:24;;;;;;;5.90;1.65;;;;;;;23.69;32.83;100609.48;1602927;88;28043;-69
2022/05/15 10:46:22;;;;;;;10.75;2.33;;;;;;;23.94;32.19;100617.05;1598425;88;25844;-71
2022/05/15 10:49:09;;;;;;;15.70;3.05;;;;;;;24.33;31.43;100605.22;1603006;88;25861;-72
2022/05/15 10:52:02;;;;;;;5.17;1.50;;;;;;;24.60;31.28;100604.23;1612484;88;25955;-70
2022/05/15 10:58:09;;;;;;;7.92;1.87;;;;;;;24.80;29.96;100613.67;1585922;89;27416;-71
2022/05/15 11:00:56;;;;;;;4.35;1.32;;;;;;;24.76;30.16;100600.45;1558657;89;25843;-70
2022/05/15 11:03:49;;;;;;;3.80;1.52;;;;;;;24.54;29.44;100602.47;1586411;89;25650;-73
2022/05/15 11:06:52;;;;;;;9.78;2.08;;;;;;;24.18;29.74;100604.45;1585332;89;25790;-72
2022/05/15 11:09:33;;;;;;;4.03;1.65;;;;;;;23.88;29.98;100601.45;1593306;89;25736;-72
2022/05/15 11:12:41;;;;;;;4.22;1.45;;;;;;;24.03;30.28;100601.67;1582833;89;27998;-69
2022/05/15 11:15:13;;;;;;;5.40;1.83;;;;;;;24.33;30.17;100599.12;1584833;89;25837;-70
2022/05/15 11:17:51;;;;;;;5.22;1.20;;;;;;;24.35;30.13;100601.48;1601753;89;25514;-71
2022/05/15 11:20:32;;;;;;;3.77;1.27;;;;;;;24.56;30.12;100593.78;1627373;88;25767;-70
2022/05/15 11:23:22;;;;;;;3.25;1.27;;;;;;;24.41;29.48;100597.13;1627025;88;26341;-76
2022/05/15 11:26:06;;;;;;;4.55;1.50;;;;;;;24.14;29.34;100592.59;1627690;88;27358;-78
2022/05/15 11:28:49;;;;;;;5.60;1.32;;;;;;;23.86;29.85;100601.84;1603308;88;25730;-77
2022/05/15 11:31:27;;;;;;;9.55;1.40;;;;;;;23.80;29.79;100600.64;1530147;93;25484;-76
2022/05/15 11:34:05;;;;;;;5.97;1.35;;;;;;;23.44;29.89;100590.88;1533639;93;25690;-76
2022/05/15 11:36:40;;;;;;;4.55;1.10;;;;;;;23.43;30.18;100589.30;1534210;93;25797;-76
2022/05/15 11:39:23;;;;;;;5.67;1.32;;;;;;;23.25;29.74;100590.61;1534014;93;25985;-76
2022/05/15 11:42:10;;;;;;;5.80;1.95;;;;;;;22.94;30.18;100585.14;1534054;93;25704;-77
2022/05/15 11:44:49;;;;;;;5.90;1.30;;;;;;;22.88;31.00;100593.00;1533684;93;25809;-77
2022/05/15 11:47:29;;;;;;;5.10;1.77;;;;;;;23.33;30.92;100590.63;1522946;94;25633;-76
2022/05/15 11:50:14;;;;;;;6.50;1.55;;;;;;;23.75;30.81;100579.50;1475303;97;25412;-77
2022/05/15 11:52:55;;;;;;;2.98;1.37;;;;;;;23.81;30.07;100577.95;1503427;95;27410;-78
2022/05/15 11:55:41;;;;;;;4.20;1.35;;;;;;;23.73;29.63;100579.89;1496424;95;25655;-73
2022/05/15 11:58:30;;;;;;;9.10;1.25;;;;;;;23.60;29.70;100585.59;1473684;97;26330;-75
2022/05/15 12:01:15;;;;;;;3.58;1.20;;;;;;;23.53;29.82;100586.38;1503092;95;26143;-73
2022/05/15 12:03:50;;;;;;;2.55;1.37;;;;;;;23.59;30.10;100576.52;1543666;92;25757;-71
2022/05/15 12:06:25;;;;;;;7.50;1.20;;;;;;;24.10;30.18;100578.78;1555656;92;28061;-77
2022/05/15 12:09:20;;;;;;;3.05;1.27;;;;;;;24.68;30.27;100579.53;1599080;88;25346;-75